createdAt,value
2022-10-18T00:00:04.130Z,10.7
2022-10-18T00:02:02.278Z,11.3
2022-10-18T00:04:02.579Z,11.4
2022-10-18T00:06:03.240Z,10.8
2022-10-18T00:08:02.960Z,12.3
2022-10-18T00:10:02.971Z,11.9
2022-10-18T00:12:02.338Z,13.3
2022-10-18T00:14:02.739Z,13.7
2022-10-18T00:16:09.914Z,12.8
2022-10-18T00:18:02.976Z,12.2
2022-10-18T00:20:02.429Z,13.3
2022-10-18T00:22:02.236Z,12.8
2022-10-18T00:24:02.513Z,12.6
2022-10-18T00:26:05.711Z,13.1
2022-10-18T00:28:02.607Z,13.3
2022-10-18T00:30:02.292Z,13.6
2022-10-18T00:32:02.244Z,13.0
2022-10-18T00:34:05.145Z,13.7
2022-10-18T00:36:02.222Z,13.7
2022-10-18T00:38:02.443Z,14.5
2022-10-18T00:40:02.787Z,14.7
2022-10-18T00:42:03.028Z,14.7
2022-10-18T00:44:04.917Z,15.1
2022-10-18T00:46:02.183Z,14.8
2022-10-18T00:48:05.040Z,14.9
2022-10-18T00:50:04.562Z,15.2
2022-10-18T00:52:05.852Z,14.7
2022-10-18T00:54:02.907Z,14.5
2022-10-18T00:56:02.401Z,13.9
2022-10-18T00:58:04.344Z,14.3
2022-10-18T01:00:07.030Z,14.6
2022-10-18T01:02:03.508Z,14.5
2022-10-18T01:04:02.575Z,14.6
2022-10-18T01:06:02.292Z,14.1
2022-10-18T01:08:15.173Z,14.2
2022-10-18T01:10:13.262Z,14.3
2022-10-18T01:12:13.073Z,14.1
2022-10-18T01:14:15.174Z,14.3
2022-10-18T01:16:10.360Z,14.4
2022-10-18T01:18:09.553Z,14.8
2022-10-18T01:20:19.145Z,14.3
2022-10-18T01:22:09.308Z,15.4
2022-10-18T01:24:19.198Z,14.1
2022-10-18T01:26:17.278Z,14.2
2022-10-18T01:28:13.368Z,14.4
2022-10-18T01:30:20.747Z,14.4
2022-10-18T01:32:06.921Z,13.7
2022-10-18T01:34:05.731Z,14.3
2022-10-18T01:36:09.836Z,13.5
2022-10-18T01:38:11.014Z,13.2
2022-10-18T01:40:06.390Z,13.0
2022-10-18T01:42:06.507Z,13.4
2022-10-18T01:44:06.190Z,12.2
2022-10-18T01:46:04.673Z,12.3
2022-10-18T01:48:03.127Z,12.4
2022-10-18T01:50:05.684Z,12.2
2022-10-18T01:52:02.402Z,12.1
2022-10-18T01:54:03.275Z,12.2
2022-10-18T01:56:16.927Z,12.3
2022-10-18T01:58:09.132Z,12.3
2022-10-18T02:00:09.653Z,11.6
2022-10-18T02:02:12.564Z,12.3
2022-10-18T02:04:12.218Z,12.2
2022-10-18T02:06:08.461Z,12.8
2022-10-18T02:10:10.299Z,12.2
2022-10-18T02:12:04.059Z,12.4
2022-10-18T02:14:08.780Z,12.3
2022-10-18T02:16:08.494Z,12.4
2022-10-18T02:18:06.375Z,12.4
2022-10-18T02:20:05.700Z,12.4
2022-10-18T02:22:03.911Z,12.5
2022-10-18T02:24:03.893Z,12.1
2022-10-18T02:26:02.342Z,12.8
2022-10-18T02:28:03.784Z,13.4
2022-10-18T02:30:03.998Z,12.9
2022-10-18T02:32:09.260Z,12.7
2022-10-18T02:34:07.830Z,13.4
2022-10-18T02:36:09.561Z,13.5
2022-10-18T02:38:04.585Z,12.8
2022-10-18T02:40:05.270Z,13.2
2022-10-18T02:42:06.384Z,13.8
2022-10-18T02:44:02.463Z,12.9
2022-10-18T02:46:03.345Z,12.7
2022-10-18T02:48:02.205Z,13.7
2022-10-18T02:50:02.482Z,13.2
2022-10-18T02:52:02.263Z,13.7
2022-10-18T02:54:02.214Z,13.2
2022-10-18T02:56:03.124Z,13.6
2022-10-18T02:58:02.730Z,13.2
2022-10-18T03:00:03.061Z,13.4
2022-10-18T03:02:02.837Z,13.5
2022-10-18T03:04:03.281Z,13.2
2022-10-18T03:06:02.190Z,13.3
2022-10-18T03:08:02.415Z,13.2
2022-10-18T03:10:02.207Z,13.7
2022-10-18T03:12:03.400Z,13.2
2022-10-18T03:14:02.286Z,12.5
2022-10-18T03:16:02.333Z,12.9
2022-10-18T03:18:02.195Z,12.9
2022-10-18T03:20:02.431Z,13.4
2022-10-18T03:22:02.214Z,12.5
2022-10-18T03:24:03.089Z,12.9
2022-10-18T03:26:02.611Z,13.0
2022-10-18T03:28:02.855Z,13.5
2022-10-18T03:30:02.367Z,13.1
2022-10-18T03:32:02.416Z,13.0
2022-10-18T03:34:02.792Z,12.4
2022-10-18T03:36:02.357Z,13.2
2022-10-18T03:38:02.270Z,12.4
2022-10-18T03:40:02.366Z,13.3
2022-10-18T03:42:02.156Z,13.4
2022-10-18T03:44:03.296Z,12.4
2022-10-18T03:46:02.189Z,13.5
2022-10-18T03:48:02.941Z,13.6
2022-10-18T03:50:02.229Z,13.6
2022-10-18T03:52:02.161Z,12.9
2022-10-18T03:54:02.316Z,13.4
2022-10-18T03:56:03.070Z,12.8
2022-10-18T03:58:02.192Z,13.3
2022-10-18T04:00:03.902Z,12.8
2022-10-18T04:02:02.287Z,13.4
2022-10-18T04:04:02.236Z,13.1
2022-10-18T04:06:03.215Z,13.2
2022-10-18T04:08:03.464Z,13.2
2022-10-18T04:10:02.775Z,12.9
2022-10-18T04:12:02.375Z,12.6
2022-10-18T04:14:02.951Z,13.2
2022-10-18T04:16:02.201Z,12.5
2022-10-18T04:18:02.478Z,13.2
2022-10-18T04:20:02.469Z,13.0
2022-10-18T04:22:02.238Z,12.9
2022-10-18T04:24:02.376Z,13.5
2022-10-18T04:26:02.224Z,12.7
2022-10-18T04:28:04.282Z,13.1
2022-10-18T04:30:02.220Z,12.8
2022-10-18T04:32:02.496Z,12.4
2022-10-18T04:34:03.858Z,13.0
2022-10-18T04:36:02.525Z,12.6
2022-10-18T04:38:02.237Z,12.3
2022-10-18T04:40:03.387Z,12.9
2022-10-18T04:42:02.180Z,12.9
2022-10-18T04:44:02.466Z,12.6
2022-10-18T04:46:02.181Z,12.6
2022-10-18T04:48:02.694Z,12.5
2022-10-18T04:50:03.441Z,12.5
2022-10-18T04:52:02.757Z,13.2
2022-10-18T04:54:02.165Z,12.7
2022-10-18T04:56:03.018Z,12.9
2022-10-18T04:58:02.753Z,12.2
2022-10-18T05:00:03.672Z,12.6
2022-10-18T05:04:02.180Z,13.3
2022-10-18T05:06:03.627Z,13.3
2022-10-18T05:08:02.500Z,13.6
2022-10-18T05:10:02.249Z,13.8
2022-10-18T05:12:02.200Z,13.3
2022-10-18T05:14:02.422Z,13.7
2022-10-18T05:16:02.218Z,13.3
2022-10-18T05:18:02.153Z,13.2
2022-10-18T05:20:03.234Z,13.5
2022-10-18T05:22:02.284Z,13.6
2022-10-18T05:24:02.312Z,13.6
2022-10-18T05:26:04.987Z,13.4
2022-10-18T05:28:10.505Z,13.0
2022-10-18T05:30:05.678Z,13.4
2022-10-18T05:32:02.806Z,13.6
2022-10-18T05:34:03.070Z,15.2
2022-10-18T05:36:03.577Z,14.4
2022-10-18T05:38:04.313Z,13.6
2022-10-18T05:40:02.250Z,14.2
2022-10-18T05:42:02.432Z,14.4
2022-10-18T05:44:04.712Z,15.1
2022-10-18T05:46:02.453Z,15.3
2022-10-18T05:48:02.198Z,15.1
2022-10-18T05:50:02.922Z,15.8
2022-10-18T05:52:02.252Z,14.4
2022-10-18T05:54:02.440Z,14.3
2022-10-18T05:56:03.818Z,14.4
2022-10-18T05:58:03.680Z,14.7
2022-10-18T06:00:02.396Z,14.2
2022-10-18T06:02:03.255Z,14.7
2022-10-18T06:04:02.544Z,14.0
2022-10-18T06:06:03.340Z,13.9
2022-10-18T06:08:04.233Z,13.9
2022-10-18T06:10:02.182Z,14.7
2022-10-18T06:12:02.242Z,13.8
2022-10-18T06:14:02.845Z,14.4
2022-10-18T06:16:02.763Z,14.2
2022-10-18T06:18:02.385Z,14.0
2022-10-18T06:20:02.389Z,14.5
2022-10-18T06:22:02.171Z,14.1
2022-10-18T06:24:02.217Z,13.9
2022-10-18T06:26:05.636Z,14.4
2022-10-18T06:28:05.196Z,14.2
2022-10-18T06:30:02.877Z,14.1
2022-10-18T06:32:02.713Z,14.2
2022-10-18T06:34:02.397Z,14.4
2022-10-18T06:36:04.804Z,14.4
2022-10-18T06:38:02.370Z,14.1
2022-10-18T06:40:02.997Z,14.7
2022-10-18T06:42:02.215Z,14.0
2022-10-18T06:44:11.990Z,14.1
2022-10-18T06:46:06.291Z,14.0
2022-10-18T06:48:02.281Z,13.7
2022-10-18T06:50:02.450Z,14.3
2022-10-18T06:52:02.437Z,14.4
2022-10-18T06:54:17.334Z,14.4
2022-10-18T06:56:05.076Z,14.6
2022-10-18T06:58:03.111Z,14.8
2022-10-18T07:00:04.496Z,14.2
2022-10-18T07:02:02.282Z,14.8
2022-10-18T07:04:02.421Z,14.4
2022-10-18T07:06:02.608Z,14.2
2022-10-18T07:08:02.474Z,14.2
2022-10-18T07:10:02.285Z,14.8
2022-10-18T07:12:02.417Z,14.9
2022-10-18T07:14:04.568Z,14.7
2022-10-18T07:16:05.553Z,15.4
2022-10-18T07:18:02.172Z,16.5
2022-10-18T07:20:03.944Z,15.2
2022-10-18T07:22:02.156Z,15.8
2022-10-18T07:24:02.155Z,16.3
2022-10-18T07:26:04.001Z,16.4
2022-10-18T07:28:03.212Z,16.4
2022-10-18T07:30:02.175Z,15.9
2022-10-18T07:32:02.440Z,16.2
2022-10-18T07:34:03.843Z,16.5
2022-10-18T07:36:02.935Z,16.5
2022-10-18T07:38:02.209Z,16.1
2022-10-18T07:40:02.277Z,16.3
2022-10-18T07:42:02.194Z,16.7
2022-10-18T07:44:03.627Z,16.8
2022-10-18T07:46:04.137Z,17.0
2022-10-18T07:48:02.221Z,17.0
2022-10-18T07:50:02.352Z,17.3
2022-10-18T07:52:02.823Z,17.0
2022-10-18T07:54:03.178Z,16.3
2022-10-18T07:56:08.571Z,16.7
2022-10-18T07:58:02.219Z,18.1
2022-10-18T08:00:02.526Z,19.3
2022-10-18T08:02:02.946Z,25.5
2022-10-18T08:04:07.160Z,25.8
2022-10-18T08:06:03.178Z,36.4
2022-10-18T08:08:05.760Z,38.5
2022-10-18T08:10:02.177Z,36.6
2022-10-18T08:12:02.357Z,34.8
2022-10-18T08:14:02.296Z,33.2
2022-10-18T08:16:03.737Z,31.2
2022-10-18T08:18:02.194Z,32.0
2022-10-18T08:20:12.181Z,34.0
2022-10-18T08:22:02.193Z,33.0
2022-10-18T08:24:02.217Z,32.2
2022-10-18T08:26:04.386Z,31.3
2022-10-18T08:28:02.173Z,29.4
2022-10-18T08:30:02.211Z,31.2
2022-10-18T08:32:02.462Z,32.3
2022-10-18T08:34:02.174Z,29.8
2022-10-18T08:36:05.552Z,29.6
2022-10-18T08:38:02.376Z,49.1
2022-10-18T08:40:02.781Z,44.7
2022-10-18T08:42:18.376Z,40.5
2022-10-18T08:44:09.089Z,49.9
2022-10-18T08:46:02.847Z,47.1
2022-10-18T08:48:04.687Z,53.3
2022-10-18T08:50:05.979Z,61.3
2022-10-18T08:52:04.161Z,64.8
2022-10-18T08:54:11.276Z,65.2
2022-10-18T08:56:10.789Z,65.6
2022-10-18T08:58:02.789Z,64.1
2022-10-18T09:00:08.104Z,64.9
2022-10-18T09:02:17.066Z,61.0
2022-10-18T09:04:16.404Z,62.7
2022-10-18T09:06:12.810Z,64.6
2022-10-18T09:08:21.243Z,65.4
2022-10-18T09:10:09.520Z,60.7
2022-10-18T09:12:16.722Z,57.4
2022-10-18T09:14:19.810Z,53.5
2022-10-18T09:16:04.483Z,51.1
2022-10-18T09:18:14.311Z,52.0
2022-10-18T09:20:12.064Z,49.7
2022-10-18T09:22:12.639Z,52.9
2022-10-18T09:24:11.969Z,51.9
2022-10-18T09:26:10.099Z,54.2
2022-10-18T09:28:14.413Z,51.8
2022-10-18T09:30:13.526Z,55.4
2022-10-18T09:32:14.300Z,55.1
2022-10-18T09:34:09.220Z,52.8
2022-10-18T09:36:05.003Z,52.8
2022-10-18T09:38:05.068Z,56.2
2022-10-18T09:40:18.077Z,56.3
2022-10-18T09:42:07.442Z,56.3
2022-10-18T09:44:06.599Z,56.7
2022-10-18T09:46:04.458Z,57.5
2022-10-18T09:48:10.353Z,52.4
2022-10-18T09:50:13.504Z,53.1
2022-10-18T09:52:09.277Z,53.2
2022-10-18T09:54:17.494Z,52.5
2022-10-18T09:56:05.870Z,52.5
2022-10-18T09:58:06.810Z,51.4
2022-10-18T10:00:04.848Z,48.0
2022-10-18T10:02:03.355Z,48.4
2022-10-18T10:04:02.424Z,52.6
2022-10-18T10:06:14.417Z,51.1
2022-10-18T10:08:02.825Z,48.5
2022-10-18T10:10:08.728Z,48.7
2022-10-18T10:12:02.886Z,48.3
2022-10-18T10:14:10.611Z,45.7
2022-10-18T10:16:03.802Z,42.7
2022-10-18T10:18:06.017Z,43.0
2022-10-18T10:20:13.970Z,42.1
2022-10-18T10:22:07.184Z,41.5
2022-10-18T10:24:03.849Z,42.1
2022-10-18T10:26:04.970Z,39.2
2022-10-18T10:28:05.246Z,40.6
2022-10-18T10:30:07.233Z,39.3
2022-10-18T10:32:04.377Z,40.6
2022-10-18T10:34:04.530Z,38.8
2022-10-18T10:36:06.537Z,40.2
2022-10-18T10:38:03.774Z,39.0
2022-10-18T10:40:18.426Z,39.3
2022-10-18T10:42:03.554Z,39.2
2022-10-18T10:44:06.011Z,38.6
2022-10-18T10:46:06.582Z,37.6
2022-10-18T10:48:05.173Z,36.4
2022-10-18T10:50:11.492Z,35.4
2022-10-18T10:52:09.086Z,35.2
2022-10-18T10:54:07.781Z,34.3
2022-10-18T10:56:04.867Z,36.2
2022-10-18T10:58:02.469Z,34.7
2022-10-18T11:00:03.065Z,35.6
2022-10-18T11:02:20.927Z,35.8
2022-10-18T11:04:09.591Z,35.5
2022-10-18T11:06:02.399Z,36.6
2022-10-18T11:08:04.539Z,35.2
2022-10-18T11:12:13.618Z,35.6
2022-10-18T11:14:25.674Z,39.2
2022-10-18T11:16:11.695Z,38.9
2022-10-18T11:18:17.314Z,47.5
2022-10-18T11:20:12.383Z,46.9
2022-10-18T11:22:07.186Z,47.4
2022-10-18T11:24:03.276Z,47.5
2022-10-18T11:26:13.844Z,47.6
2022-10-18T11:28:10.023Z,57.1
2022-10-18T11:30:20.120Z,67.1
2022-10-18T11:32:12.114Z,59.1
2022-10-18T11:34:19.674Z,61.9
2022-10-18T11:36:09.092Z,63.3
2022-10-18T11:38:13.694Z,64.4
2022-10-18T11:40:18.663Z,64.9
2022-10-18T11:42:11.332Z,63.3
2022-10-18T11:44:04.866Z,53.3
2022-10-18T11:46:11.520Z,51.5
2022-10-18T11:48:18.259Z,52.4
2022-10-18T11:50:11.644Z,50.9
2022-10-18T11:52:12.721Z,52.2
2022-10-18T11:54:21.221Z,49.5
2022-10-18T11:56:12.517Z,56.6
2022-10-18T11:58:14.763Z,55.0
2022-10-18T12:00:15.841Z,56.3
2022-10-18T12:02:21.533Z,62.0
2022-10-18T12:04:07.977Z,63.2
2022-10-18T12:06:09.987Z,64.1
2022-10-18T12:08:08.564Z,64.7
2022-10-18T12:10:07.090Z,65.9
2022-10-18T12:12:08.919Z,63.5
2022-10-18T12:14:05.592Z,61.1
2022-10-18T12:16:05.130Z,63.7
2022-10-18T12:18:07.249Z,59.5
2022-10-18T12:20:07.680Z,54.6
2022-10-18T12:22:14.599Z,48.4
2022-10-18T12:24:07.368Z,46.3
2022-10-18T12:26:04.419Z,48.5
2022-10-18T12:28:07.816Z,46.1
2022-10-18T12:30:14.067Z,46.8
2022-10-18T12:32:07.008Z,44.6
2022-10-18T12:34:06.932Z,42.5
2022-10-18T12:36:12.609Z,41.6
2022-10-18T12:38:18.574Z,42.1
2022-10-18T12:40:13.379Z,43.8
2022-10-18T12:42:02.984Z,52.4
2022-10-18T12:44:06.182Z,48.7
2022-10-18T12:46:07.241Z,51.1
2022-10-18T12:48:05.975Z,51.8
2022-10-18T12:50:05.372Z,55.5
2022-10-18T12:52:05.767Z,53.4
2022-10-18T12:54:13.378Z,68.8
2022-10-18T12:56:23.176Z,60.0
2022-10-18T12:58:06.517Z,69.0
2022-10-18T13:00:02.338Z,68.6
2022-10-18T13:02:20.961Z,66.5
2022-10-18T13:04:02.266Z,73.1
2022-10-18T13:06:06.402Z,73.5
2022-10-18T13:08:21.281Z,81.1
2022-10-18T13:10:21.240Z,81.0
2022-10-18T13:12:21.222Z,77.8
2022-10-18T13:14:15.267Z,78.5
2022-10-18T13:16:07.658Z,76.2
2022-10-18T13:18:09.955Z,73.4
2022-10-18T13:20:26.006Z,64.6
2022-10-18T13:22:19.506Z,57.3
2022-10-18T13:24:18.001Z,49.8
2022-10-18T13:26:13.331Z,45.0
2022-10-18T13:28:15.762Z,41.5
2022-10-18T13:30:21.277Z,39.3
2022-10-18T13:34:22.250Z,39.0
2022-10-18T13:36:05.278Z,45.4
2022-10-18T13:38:03.610Z,42.6
2022-10-18T13:40:16.097Z,40.0
2022-10-18T13:42:21.438Z,39.7
2022-10-18T13:44:21.371Z,42.0
2022-10-18T13:46:06.205Z,41.8
2022-10-18T13:48:21.224Z,44.3
2022-10-18T13:50:20.958Z,41.8
2022-10-18T13:52:14.579Z,43.2
2022-10-18T13:54:10.335Z,45.4
2022-10-18T13:56:20.530Z,41.0
2022-10-18T13:58:14.498Z,48.6
2022-10-18T14:00:16.075Z,45.8
2022-10-18T14:02:36.349Z,46.6
2022-10-18T14:04:21.452Z,47.3
2022-10-18T14:06:09.613Z,48.0
2022-10-18T14:08:10.307Z,48.0
2022-10-18T14:10:04.485Z,44.2
2022-10-18T14:12:11.949Z,44.7
2022-10-18T14:14:09.000Z,44.7
2022-10-18T14:16:11.081Z,41.6
2022-10-18T14:18:07.691Z,41.3
2022-10-18T14:20:13.991Z,42.4
2022-10-18T14:22:11.311Z,42.2
2022-10-18T14:24:08.931Z,43.5
2022-10-18T14:26:08.591Z,44.3
2022-10-18T14:28:10.125Z,44.8
2022-10-18T14:30:15.231Z,45.2
2022-10-18T14:32:02.189Z,47.1
2022-10-18T14:34:03.200Z,45.3
2022-10-18T14:36:09.162Z,44.4
2022-10-18T14:38:02.970Z,46.5
2022-10-18T14:40:03.907Z,44.3
2022-10-18T14:42:02.940Z,44.7
2022-10-18T14:44:18.838Z,46.7
2022-10-18T14:46:15.581Z,48.2
2022-10-18T14:48:14.965Z,47.9
2022-10-18T14:50:02.326Z,54.7
2022-10-18T14:52:02.880Z,59.3
2022-10-18T14:54:02.667Z,67.6
2022-10-18T14:56:04.086Z,69.4
2022-10-18T14:58:03.422Z,58.3
2022-10-18T15:00:07.665Z,58.4
2022-10-18T15:02:09.877Z,56.6
2022-10-18T15:04:06.878Z,66.9
2022-10-18T15:06:05.420Z,70.4
2022-10-18T15:08:02.975Z,90.1
2022-10-18T15:10:04.692Z,117.1
2022-10-18T15:12:05.153Z,118.3
2022-10-18T15:14:06.475Z,131.9
2022-10-18T15:16:02.714Z,133.2
2022-10-18T15:18:04.746Z,135.8
2022-10-18T15:20:13.123Z,139.7
2022-10-18T15:22:31.418Z,141.2
2022-10-18T15:24:20.493Z,126.9
2022-10-18T15:26:06.564Z,112.4
2022-10-18T15:28:02.849Z,112.8
2022-10-18T15:30:08.063Z,114.8
2022-10-18T15:32:08.634Z,119.9
2022-10-18T15:34:11.319Z,120.1
2022-10-18T15:36:20.630Z,119.2
2022-10-18T15:38:16.095Z,129.7
2022-10-18T15:40:21.271Z,131.1
2022-10-18T15:42:03.342Z,134.0
2022-10-18T15:44:11.547Z,133.2
2022-10-18T15:46:06.823Z,136.7
2022-10-18T15:48:18.386Z,134.8
2022-10-18T15:50:02.716Z,142.2
2022-10-18T15:52:21.233Z,136.7
2022-10-18T15:54:02.199Z,134.6
2022-10-18T15:56:05.747Z,126.6
2022-10-18T15:58:04.730Z,124.1
2022-10-18T16:00:06.863Z,111.5
2022-10-18T16:02:02.382Z,133.0
2022-10-18T16:04:06.683Z,120.6
2022-10-18T16:06:06.778Z,111.3
2022-10-18T16:08:02.254Z,114.6
2022-10-18T16:10:03.296Z,118.0
2022-10-18T16:12:03.237Z,111.1
2022-10-18T16:14:02.239Z,120.4
2022-10-18T16:16:02.830Z,119.4
2022-10-18T16:18:02.205Z,147.7
2022-10-18T16:20:02.256Z,146.2
2022-10-18T16:22:06.307Z,130.9
2022-10-18T16:24:03.749Z,124.1
2022-10-18T16:26:02.236Z,134.6
2022-10-18T16:28:02.255Z,170.0
2022-10-18T16:30:03.477Z,183.9
2022-10-18T16:32:02.249Z,188.6
2022-10-18T16:34:02.700Z,174.3
2022-10-18T16:36:04.510Z,161.9
2022-10-18T16:38:02.882Z,137.0
2022-10-18T16:40:02.217Z,133.7
2022-10-18T16:42:02.195Z,207.2
2022-10-18T16:44:02.238Z,247.2
2022-10-18T16:46:04.580Z,233.2
2022-10-18T16:48:02.409Z,237.4
2022-10-18T16:50:07.742Z,255.2
2022-10-18T16:52:02.163Z,256.7
2022-10-18T16:54:02.774Z,249.0
2022-10-18T16:56:05.378Z,236.3
2022-10-18T16:58:02.392Z,244.4
2022-10-18T17:00:02.579Z,243.2
2022-10-18T17:02:06.039Z,240.3
2022-10-18T17:04:02.279Z,217.4
2022-10-18T17:06:02.793Z,223.4
2022-10-18T17:08:03.020Z,178.0
2022-10-18T17:10:02.604Z,187.1
2022-10-18T17:12:02.336Z,187.7
2022-10-18T17:14:02.208Z,221.7
2022-10-18T17:16:03.410Z,205.3
2022-10-18T17:18:03.486Z,197.6
2022-10-18T17:20:04.034Z,202.2
2022-10-18T17:22:02.823Z,207.2
2022-10-18T17:24:04.108Z,219.7
2022-10-18T17:26:14.998Z,220.1
2022-10-18T17:28:03.075Z,219.3
2022-10-18T17:30:02.325Z,221.8
2022-10-18T17:32:04.377Z,195.7
2022-10-18T17:34:03.161Z,191.5
2022-10-18T17:36:03.497Z,134.9
2022-10-18T17:38:02.223Z,111.7
2022-10-18T17:40:02.398Z,114.9
2022-10-18T17:42:02.216Z,139.3
2022-10-18T17:44:03.996Z,134.8
2022-10-18T17:46:02.442Z,116.7
2022-10-18T17:48:02.462Z,88.7
2022-10-18T17:50:02.858Z,66.2
2022-10-18T17:52:06.179Z,62.4
2022-10-18T17:54:02.190Z,111.2
2022-10-18T17:56:04.494Z,101.9
2022-10-18T17:58:02.340Z,112.8
2022-10-18T18:00:04.656Z,95.3
2022-10-18T18:02:02.237Z,92.3
2022-10-18T18:04:04.059Z,109.8
2022-10-18T18:06:13.160Z,118.0
2022-10-18T18:08:04.101Z,122.4
2022-10-18T18:10:02.369Z,126.8
2022-10-18T18:12:02.606Z,125.4
2022-10-18T18:14:07.923Z,125.3
2022-10-18T18:16:12.003Z,117.7
2022-10-18T18:18:02.521Z,111.0
2022-10-18T18:20:02.588Z,110.1
2022-10-18T18:22:03.300Z,106.0
2022-10-18T18:24:03.551Z,111.0
2022-10-18T18:26:02.225Z,103.7
2022-10-18T18:28:05.215Z,103.7
2022-10-18T18:30:02.397Z,101.2
2022-10-18T18:32:03.049Z,95.4
2022-10-18T18:34:02.464Z,104.1
2022-10-18T18:36:04.619Z,98.7
2022-10-18T18:40:02.217Z,117.0
2022-10-18T18:42:03.939Z,102.9
2022-10-18T18:44:05.743Z,113.2
2022-10-18T18:46:02.653Z,99.5
2022-10-18T18:48:02.238Z,103.8
2022-10-18T18:50:03.102Z,105.1
2022-10-18T18:52:02.225Z,117.3
2022-10-18T18:54:02.390Z,113.0
2022-10-18T18:56:03.508Z,129.5
2022-10-18T18:58:02.345Z,132.9
2022-10-18T19:00:02.481Z,119.4
2022-10-18T19:02:02.820Z,123.6
2022-10-18T19:04:03.406Z,117.7
2022-10-18T19:06:06.079Z,134.8
2022-10-18T19:08:04.233Z,134.6
2022-10-18T19:10:02.514Z,137.7
2022-10-18T19:12:02.759Z,137.8
2022-10-18T19:14:04.331Z,137.3
2022-10-18T19:16:19.274Z,134.3
2022-10-18T19:18:04.527Z,130.6
2022-10-18T19:20:02.925Z,104.0
2022-10-18T19:22:04.573Z,81.5
2022-10-18T19:24:04.178Z,80.4
2022-10-18T19:26:10.093Z,78.4
2022-10-18T19:28:02.148Z,83.9
2022-10-18T19:30:02.218Z,88.1
2022-10-18T19:32:06.740Z,85.4
2022-10-18T19:34:03.029Z,84.3
2022-10-18T19:36:03.645Z,79.7
2022-10-18T19:38:02.461Z,84.7
2022-10-18T19:40:02.262Z,83.8
2022-10-18T19:42:04.584Z,87.5
2022-10-18T19:44:02.995Z,85.1
2022-10-18T19:46:02.972Z,77.4
2022-10-18T19:48:02.648Z,114.9
2022-10-18T19:50:02.319Z,113.4
2022-10-18T19:52:02.986Z,107.0
2022-10-18T19:54:02.555Z,111.8
2022-10-18T19:56:04.892Z,100.4
2022-10-18T19:58:02.432Z,98.7
2022-10-18T20:00:03.552Z,84.3
2022-10-18T20:02:04.244Z,86.8
2022-10-18T20:04:04.025Z,85.7
2022-10-18T20:06:03.960Z,92.2
2022-10-18T20:08:03.370Z,96.7
2022-10-18T20:10:03.284Z,95.8
2022-10-18T20:12:02.261Z,90.7
2022-10-18T20:14:02.337Z,92.1
2022-10-18T20:16:04.386Z,91.2
2022-10-18T20:18:02.204Z,90.1
2022-10-18T20:20:02.285Z,90.5
2022-10-18T20:22:02.525Z,90.5
2022-10-18T20:24:02.499Z,93.0
2022-10-18T20:26:04.498Z,100.4
2022-10-18T20:28:02.196Z,96.8
2022-10-18T20:30:03.730Z,103.1
2022-10-18T20:32:03.030Z,106.2
2022-10-18T20:34:04.405Z,107.7
2022-10-18T20:36:04.426Z,119.0
2022-10-18T20:38:02.219Z,116.6
2022-10-18T20:40:02.809Z,121.5
2022-10-18T20:42:02.415Z,120.3
2022-10-18T20:44:04.547Z,120.4
2022-10-18T20:46:02.865Z,114.4
2022-10-18T20:48:02.223Z,116.5
2022-10-18T20:50:03.537Z,113.2
2022-10-18T20:52:02.388Z,119.4
2022-10-18T20:56:05.330Z,121.9
2022-10-18T20:58:02.211Z,128.7
2022-10-18T21:00:02.268Z,131.1
2022-10-18T21:02:02.372Z,133.1
2022-10-18T21:04:04.623Z,131.7
2022-10-18T21:06:08.966Z,137.8
2022-10-18T21:08:02.226Z,129.7
2022-10-18T21:10:02.201Z,131.3
2022-10-18T21:12:02.404Z,120.0
2022-10-18T21:14:03.942Z,133.8
2022-10-18T21:16:04.728Z,139.5
2022-10-18T21:18:02.348Z,128.7
2022-10-18T21:20:02.443Z,145.1
2022-10-18T21:22:02.319Z,153.1
2022-10-18T21:24:06.934Z,148.4
2022-10-18T21:26:02.811Z,148.6
2022-10-18T21:28:02.632Z,134.7
2022-10-18T21:30:02.919Z,138.0
2022-10-18T21:32:02.770Z,149.8
2022-10-18T21:34:05.299Z,149.6
2022-10-18T21:36:02.387Z,147.0
2022-10-18T21:38:02.283Z,145.7
2022-10-18T21:40:02.748Z,152.1
2022-10-18T21:42:02.202Z,149.0
2022-10-18T21:44:05.589Z,149.2
2022-10-18T21:46:03.047Z,150.0
2022-10-18T21:48:04.124Z,154.8
2022-10-18T21:50:02.709Z,148.2
2022-10-18T21:52:04.900Z,145.9
2022-10-18T21:54:02.223Z,150.5
2022-10-18T21:56:08.358Z,149.4
2022-10-18T21:58:02.863Z,152.3
2022-10-18T22:00:02.324Z,154.7
2022-10-18T22:02:02.616Z,153.1
2022-10-18T22:04:04.746Z,155.6
2022-10-18T22:06:04.772Z,152.4
2022-10-18T22:08:02.919Z,150.8
2022-10-18T22:10:02.229Z,152.0
2022-10-18T22:12:03.062Z,154.8
2022-10-18T22:14:02.809Z,153.3
2022-10-18T22:16:03.674Z,149.5
2022-10-18T22:18:02.269Z,143.9
2022-10-18T22:20:02.889Z,145.0
2022-10-18T22:22:02.204Z,151.2
2022-10-18T22:24:06.577Z,147.0
2022-10-18T22:26:04.838Z,146.3
2022-10-18T22:28:02.565Z,145.4
2022-10-18T22:30:02.209Z,140.9
2022-10-18T22:32:02.205Z,141.1
2022-10-18T22:34:05.160Z,142.2
2022-10-18T22:36:02.176Z,145.6
2022-10-18T22:38:02.416Z,142.3
2022-10-18T22:40:02.250Z,138.4
2022-10-18T22:42:04.796Z,134.9
2022-10-18T22:44:03.953Z,136.1
2022-10-18T22:46:02.547Z,135.2
2022-10-18T22:48:02.984Z,132.0
2022-10-18T22:50:02.229Z,127.5
2022-10-18T22:52:02.206Z,136.2
2022-10-18T22:54:02.715Z,134.4
2022-10-18T22:56:03.678Z,133.1
2022-10-18T22:58:02.193Z,134.6
2022-10-18T23:00:02.477Z,133.0
2022-10-18T23:02:02.339Z,132.8
2022-10-18T23:04:02.977Z,131.4
2022-10-18T23:06:03.923Z,131.1
2022-10-18T23:08:02.188Z,130.9
2022-10-18T23:10:02.228Z,128.4
2022-10-18T23:12:02.420Z,126.4
2022-10-18T23:14:03.808Z,124.9
2022-10-18T23:16:04.663Z,127.1
2022-10-18T23:18:03.034Z,123.6
2022-10-18T23:20:02.262Z,123.6
2022-10-18T23:22:02.187Z,124.1
2022-10-18T23:24:03.288Z,123.5
2022-10-18T23:26:04.938Z,122.6
2022-10-18T23:28:02.190Z,121.2
2022-10-18T23:30:02.436Z,120.0
2022-10-18T23:32:02.242Z,126.3
2022-10-18T23:34:05.086Z,123.5
2022-10-18T23:36:02.652Z,121.2
2022-10-18T23:38:02.273Z,117.7
2022-10-18T23:40:02.214Z,119.8
2022-10-18T23:42:02.454Z,125.3
2022-10-18T23:44:02.361Z,125.4
2022-10-18T23:46:02.328Z,122.8
2022-10-18T23:48:02.268Z,122.7
2022-10-18T23:50:02.240Z,122.7
2022-10-18T23:52:02.207Z,124.9
2022-10-18T23:54:02.983Z,131.5
2022-10-18T23:56:05.794Z,127.0
